sensor_id;sensor_type;location;lat;lon;timestamp;P1;durP1;ratioP1;P2;durP2;ratioP2
7487;SDS011;3785;52.260;4.728;2022-11-20T00:01:36;6.27;;;4.13;;
7487;SDS011;3785;52.260;4.728;2022-11-20T00:04:57;6.67;;;3.90;;
7487;SDS011;3785;52.260;4.728;2022-11-20T00:08:17;12.27;;;4.93;;
7487;SDS011;3785;52.260;4.728;2022-11-20T00:11:38;7.90;;;4.33;;
7487;SDS011;3785;52.260;4.728;2022-11-20T00:14:59;8.73;;;4.17;;
7487;SDS011;3785;52.260;4.728;2022-11-20T00:18:20;8.67;;;4.80;;
7487;SDS011;3785;52.260;4.728;2022-11-20T00:21:40;8.57;;;4.47;;
7487;SDS011;3785;52.260;4.728;2022-11-20T00:25:01;7.23;;;3.80;;
7487;SDS011;3785;52.260;4.728;2022-11-20T00:28:22;7.50;;;4.03;;
7487;SDS011;3785;52.260;4.728;2022-11-20T00:31:42;8.70;;;4.27;;
7487;SDS011;3785;52.260;4.728;2022-11-20T00:35:03;9.03;;;4.67;;
7487;SDS011;3785;52.260;4.728;2022-11-20T00:38:24;6.37;;;4.47;;
7487;SDS011;3785;52.260;4.728;2022-11-20T00:41:44;6.40;;;3.90;;
7487;SDS011;3785;52.260;4.728;2022-11-20T00:45:05;7.67;;;4.23;;
7487;SDS011;3785;52.260;4.728;2022-11-20T00:48:26;8.50;;;4.40;;
7487;SDS011;3785;52.260;4.728;2022-11-20T00:51:47;5.87;;;3.57;;
7487;SDS011;3785;52.260;4.728;2022-11-20T00:55:07;9.37;;;4.10;;
7487;SDS011;3785;52.260;4.728;2022-11-20T00:58:29;6.90;;;3.73;;
7487;SDS011;3785;52.260;4.728;2022-11-20T01:01:56;8.70;;;4.70;;
7487;SDS011;3785;52.260;4.728;2022-11-20T01:05:17;5.40;;;3.57;;
7487;SDS011;3785;52.260;4.728;2022-11-20T01:08:38;9.63;;;4.57;;
7487;SDS011;3785;52.260;4.728;2022-11-20T01:11:59;6.67;;;4.07;;
7487;SDS011;3785;52.260;4.728;2022-11-20T01:15:20;5.63;;;3.20;;
7487;SDS011;3785;52.260;4.728;2022-11-20T01:18:42;9.67;;;5.30;;
7487;SDS011;3785;52.260;4.728;2022-11-20T01:22:03;9.93;;;4.57;;
7487;SDS011;3785;52.260;4.728;2022-11-20T01:25:24;7.80;;;4.53;;
7487;SDS011;3785;52.260;4.728;2022-11-20T01:28:45;8.53;;;4.30;;
7487;SDS011;3785;52.260;4.728;2022-11-20T01:32:05;7.30;;;4.17;;
7487;SDS011;3785;52.260;4.728;2022-11-20T01:35:26;8.97;;;4.33;;
7487;SDS011;3785;52.260;4.728;2022-11-20T01:38:46;8.37;;;4.13;;
7487;SDS011;3785;52.260;4.728;2022-11-20T01:42:07;8.87;;;4.40;;
7487;SDS011;3785;52.260;4.728;2022-11-20T01:49:19;7.87;;;4.43;;
7487;SDS011;3785;52.260;4.728;2022-11-20T01:56:14;8.60;;;4.53;;
7487;SDS011;3785;52.260;4.728;2022-11-20T01:59:35;8.10;;;4.40;;
7487;SDS011;3785;52.260;4.728;2022-11-20T02:03:00;7.43;;;4.50;;
7487;SDS011;3785;52.260;4.728;2022-11-20T02:06:44;6.77;;;3.50;;
7487;SDS011;3785;52.260;4.728;2022-11-20T02:10:10;6.33;;;4.33;;
7487;SDS011;3785;52.260;4.728;2022-11-20T02:13:31;7.67;;;4.30;;
7487;SDS011;3785;52.260;4.728;2022-11-20T02:17:05;8.37;;;4.17;;
7487;SDS011;3785;52.260;4.728;2022-11-20T02:20:25;6.83;;;4.17;;
7487;SDS011;3785;52.260;4.728;2022-11-20T02:23:58;8.60;;;4.10;;
7487;SDS011;3785;52.260;4.728;2022-11-20T02:27:20;8.73;;;4.67;;
7487;SDS011;3785;52.260;4.728;2022-11-20T02:30:41;8.20;;;4.03;;
7487;SDS011;3785;52.260;4.728;2022-11-20T02:34:01;7.93;;;4.23;;
7487;SDS011;3785;52.260;4.728;2022-11-20T02:37:22;9.50;;;4.47;;
7487;SDS011;3785;52.260;4.728;2022-11-20T02:40:43;10.73;;;4.87;;
7487;SDS011;3785;52.260;4.728;2022-11-20T02:44:04;7.17;;;4.00;;
7487;SDS011;3785;52.260;4.728;2022-11-20T02:47:25;6.70;;;3.67;;
7487;SDS011;3785;52.260;4.728;2022-11-20T02:50:46;7.50;;;4.00;;
7487;SDS011;3785;52.260;4.728;2022-11-20T02:54:06;6.67;;;4.20;;
7487;SDS011;3785;52.260;4.728;2022-11-20T02:57:27;8.70;;;3.70;;
7487;SDS011;3785;52.260;4.728;2022-11-20T03:00:47;10.57;;;4.23;;
7487;SDS011;3785;52.260;4.728;2022-11-20T03:04:08;8.17;;;4.30;;
7487;SDS011;3785;52.260;4.728;2022-11-20T03:07:29;6.83;;;4.27;;
7487;SDS011;3785;52.260;4.728;2022-11-20T03:10:49;9.63;;;4.53;;
7487;SDS011;3785;52.260;4.728;2022-11-20T03:14:10;6.27;;;3.77;;
7487;SDS011;3785;52.260;4.728;2022-11-20T03:17:30;7.53;;;3.47;;
7487;SDS011;3785;52.260;4.728;2022-11-20T03:20:56;8.80;;;4.80;;
7487;SDS011;3785;52.260;4.728;2022-11-20T03:24:18;10.83;;;4.03;;
7487;SDS011;3785;52.260;4.728;2022-11-20T03:27:38;8.07;;;4.60;;
7487;SDS011;3785;52.260;4.728;2022-11-20T03:31:04;8.43;;;4.17;;
7487;SDS011;3785;52.260;4.728;2022-11-20T03:34:29;7.93;;;3.90;;
7487;SDS011;3785;52.260;4.728;2022-11-20T03:37:49;8.50;;;4.27;;
7487;SDS011;3785;52.260;4.728;2022-11-20T03:41:11;8.27;;;4.87;;
7487;SDS011;3785;52.260;4.728;2022-11-20T03:44:36;10.43;;;4.60;;
7487;SDS011;3785;52.260;4.728;2022-11-20T03:47:56;8.80;;;4.63;;
7487;SDS011;3785;52.260;4.728;2022-11-20T03:51:18;10.23;;;5.07;;
7487;SDS011;3785;52.260;4.728;2022-11-20T03:54:40;6.40;;;3.67;;
7487;SDS011;3785;52.260;4.728;2022-11-20T03:58:01;9.97;;;5.67;;
7487;SDS011;3785;52.260;4.728;2022-11-20T04:01:23;10.87;;;5.47;;
7487;SDS011;3785;52.260;4.728;2022-11-20T04:04:45;7.27;;;4.33;;
7487;SDS011;3785;52.260;4.728;2022-11-20T04:08:05;8.37;;;4.40;;
7487;SDS011;3785;52.260;4.728;2022-11-20T04:11:27;11.27;;;4.97;;
7487;SDS011;3785;52.260;4.728;2022-11-20T04:14:51;9.37;;;5.20;;
7487;SDS011;3785;52.260;4.728;2022-11-20T04:18:12;10.03;;;4.80;;
7487;SDS011;3785;52.260;4.728;2022-11-20T04:21:32;8.43;;;4.73;;
7487;SDS011;3785;52.260;4.728;2022-11-20T04:24:53;7.17;;;4.30;;
7487;SDS011;3785;52.260;4.728;2022-11-20T04:28:14;8.87;;;4.60;;
7487;SDS011;3785;52.260;4.728;2022-11-20T04:31:34;8.90;;;4.43;;
7487;SDS011;3785;52.260;4.728;2022-11-20T04:34:55;9.67;;;4.47;;
7487;SDS011;3785;52.260;4.728;2022-11-20T04:38:15;9.33;;;5.10;;
7487;SDS011;3785;52.260;4.728;2022-11-20T04:41:36;8.40;;;4.80;;
7487;SDS011;3785;52.260;4.728;2022-11-20T04:44:57;10.50;;;4.73;;
7487;SDS011;3785;52.260;4.728;2022-11-20T04:48:17;10.70;;;6.03;;
7487;SDS011;3785;52.260;4.728;2022-11-20T04:51:38;7.77;;;4.53;;
7487;SDS011;3785;52.260;4.728;2022-11-20T04:54:58;10.47;;;5.33;;
7487;SDS011;3785;52.260;4.728;2022-11-20T04:58:19;12.43;;;5.43;;
7487;SDS011;3785;52.260;4.728;2022-11-20T05:01:39;9.63;;;5.10;;
7487;SDS011;3785;52.260;4.728;2022-11-20T05:05:00;12.07;;;6.00;;
7487;SDS011;3785;52.260;4.728;2022-11-20T05:08:21;9.37;;;4.87;;
7487;SDS011;3785;52.260;4.728;2022-11-20T05:11:41;11.60;;;5.53;;
7487;SDS011;3785;52.260;4.728;2022-11-20T05:15:02;11.40;;;5.60;;
7487;SDS011;3785;52.260;4.728;2022-11-20T05:18:22;9.30;;;5.17;;
7487;SDS011;3785;52.260;4.728;2022-11-20T05:21:43;7.33;;;4.67;;
7487;SDS011;3785;52.260;4.728;2022-11-20T05:25:04;7.90;;;5.07;;
7487;SDS011;3785;52.260;4.728;2022-11-20T05:28:25;9.43;;;5.10;;
7487;SDS011;3785;52.260;4.728;2022-11-20T05:31:47;9.47;;;4.83;;
7487;SDS011;3785;52.260;4.728;2022-11-20T05:35:07;9.27;;;5.63;;
7487;SDS011;3785;52.260;4.728;2022-11-20T05:38:28;10.77;;;5.50;;
7487;SDS011;3785;52.260;4.728;2022-11-20T05:41:48;10.37;;;5.97;;
7487;SDS011;3785;52.260;4.728;2022-11-20T05:45:29;9.43;;;5.33;;
7487;SDS011;3785;52.260;4.728;2022-11-20T05:48:49;7.80;;;4.93;;
7487;SDS011;3785;52.260;4.728;2022-11-20T05:52:10;9.70;;;5.73;;
7487;SDS011;3785;52.260;4.728;2022-11-20T05:55:31;7.37;;;5.07;;
7487;SDS011;3785;52.260;4.728;2022-11-20T05:58:51;10.77;;;5.57;;
7487;SDS011;3785;52.260;4.728;2022-11-20T06:02:12;11.30;;;6.00;;
7487;SDS011;3785;52.260;4.728;2022-11-20T06:05:33;11.53;;;5.37;;
7487;SDS011;3785;52.260;4.728;2022-11-20T06:08:54;11.70;;;5.17;;
7487;SDS011;3785;52.260;4.728;2022-11-20T06:12:15;9.63;;;5.47;;
7487;SDS011;3785;52.260;4.728;2022-11-20T06:15:36;10.50;;;5.33;;
7487;SDS011;3785;52.260;4.728;2022-11-20T06:18:56;11.53;;;5.33;;
7487;SDS011;3785;52.260;4.728;2022-11-20T06:22:17;12.07;;;6.00;;
7487;SDS011;3785;52.260;4.728;2022-11-20T06:25:38;12.10;;;5.97;;
7487;SDS011;3785;52.260;4.728;2022-11-20T06:29:02;9.80;;;5.33;;
7487;SDS011;3785;52.260;4.728;2022-11-20T06:32:22;11.57;;;6.33;;
7487;SDS011;3785;52.260;4.728;2022-11-20T06:35:43;10.40;;;5.63;;
7487;SDS011;3785;52.260;4.728;2022-11-20T06:39:03;11.33;;;5.67;;
7487;SDS011;3785;52.260;4.728;2022-11-20T06:42:24;10.30;;;4.93;;
7487;SDS011;3785;52.260;4.728;2022-11-20T06:45:45;10.10;;;5.57;;
7487;SDS011;3785;52.260;4.728;2022-11-20T06:49:05;8.90;;;5.37;;
7487;SDS011;3785;52.260;4.728;2022-11-20T06:52:26;11.67;;;5.43;;
7487;SDS011;3785;52.260;4.728;2022-11-20T06:55:47;9.53;;;5.50;;
7487;SDS011;3785;52.260;4.728;2022-11-20T06:59:08;11.97;;;5.47;;
7487;SDS011;3785;52.260;4.728;2022-11-20T07:02:28;10.90;;;5.43;;
7487;SDS011;3785;52.260;4.728;2022-11-20T07:05:49;9.23;;;5.03;;
7487;SDS011;3785;52.260;4.728;2022-11-20T07:09:09;10.80;;;5.50;;
7487;SDS011;3785;52.260;4.728;2022-11-20T07:12:30;9.23;;;5.63;;
7487;SDS011;3785;52.260;4.728;2022-11-20T07:15:51;11.37;;;5.30;;
7487;SDS011;3785;52.260;4.728;2022-11-20T07:19:11;8.63;;;5.70;;
7487;SDS011;3785;52.260;4.728;2022-11-20T07:22:32;11.80;;;5.37;;
7487;SDS011;3785;52.260;4.728;2022-11-20T07:25:52;11.93;;;5.40;;
7487;SDS011;3785;52.260;4.728;2022-11-20T07:29:13;9.37;;;5.97;;
7487;SDS011;3785;52.260;4.728;2022-11-20T07:32:34;8.87;;;5.73;;
7487;SDS011;3785;52.260;4.728;2022-11-20T07:35:54;11.63;;;6.00;;
7487;SDS011;3785;52.260;4.728;2022-11-20T07:39:15;11.00;;;6.37;;
7487;SDS011;3785;52.260;4.728;2022-11-20T07:42:35;9.97;;;5.87;;
7487;SDS011;3785;52.260;4.728;2022-11-20T07:45:56;10.70;;;6.33;;
7487;SDS011;3785;52.260;4.728;2022-11-20T07:49:17;10.87;;;6.03;;
7487;SDS011;3785;52.260;4.728;2022-11-20T07:52:38;13.00;;;6.03;;
7487;SDS011;3785;52.260;4.728;2022-11-20T07:55:59;10.53;;;6.03;;
7487;SDS011;3785;52.260;4.728;2022-11-20T07:59:21;11.77;;;5.83;;
7487;SDS011;3785;52.260;4.728;2022-11-20T08:02:42;14.30;;;6.73;;
7487;SDS011;3785;52.260;4.728;2022-11-20T08:06:02;11.63;;;5.90;;
7487;SDS011;3785;52.260;4.728;2022-11-20T08:09:23;12.27;;;6.20;;
7487;SDS011;3785;52.260;4.728;2022-11-20T08:12:48;10.07;;;5.70;;
7487;SDS011;3785;52.260;4.728;2022-11-20T08:16:28;10.93;;;5.73;;
7487;SDS011;3785;52.260;4.728;2022-11-20T08:19:48;14.00;;;6.70;;
7487;SDS011;3785;52.260;4.728;2022-11-20T08:23:09;11.63;;;6.53;;
7487;SDS011;3785;52.260;4.728;2022-11-20T08:26:30;11.57;;;6.30;;
7487;SDS011;3785;52.260;4.728;2022-11-20T08:29:50;12.20;;;6.27;;
7487;SDS011;3785;52.260;4.728;2022-11-20T08:33:11;13.17;;;6.23;;
7487;SDS011;3785;52.260;4.728;2022-11-20T08:36:32;14.30;;;7.07;;
7487;SDS011;3785;52.260;4.728;2022-11-20T08:39:53;11.77;;;6.27;;
7487;SDS011;3785;52.260;4.728;2022-11-20T08:43:16;10.77;;;5.77;;
7487;SDS011;3785;52.260;4.728;2022-11-20T08:46:38;11.13;;;6.20;;
7487;SDS011;3785;52.260;4.728;2022-11-20T08:50:00;11.80;;;6.90;;
7487;SDS011;3785;52.260;4.728;2022-11-20T08:53:21;12.70;;;6.47;;
7487;SDS011;3785;52.260;4.728;2022-11-20T08:56:41;11.70;;;6.57;;
7487;SDS011;3785;52.260;4.728;2022-11-20T09:00:06;11.10;;;6.60;;
7487;SDS011;3785;52.260;4.728;2022-11-20T09:03:27;11.87;;;6.37;;
7487;SDS011;3785;52.260;4.728;2022-11-20T09:06:48;13.90;;;7.47;;
7487;SDS011;3785;52.260;4.728;2022-11-20T09:10:10;12.70;;;6.87;;
7487;SDS011;3785;52.260;4.728;2022-11-20T09:13:31;13.23;;;7.77;;
7487;SDS011;3785;52.260;4.728;2022-11-20T09:16:53;13.63;;;7.20;;
7487;SDS011;3785;52.260;4.728;2022-11-20T09:20:14;11.73;;;6.97;;
7487;SDS011;3785;52.260;4.728;2022-11-20T09:23:35;13.57;;;7.13;;
7487;SDS011;3785;52.260;4.728;2022-11-20T09:26:55;12.63;;;7.23;;
7487;SDS011;3785;52.260;4.728;2022-11-20T09:30:16;13.47;;;7.50;;
7487;SDS011;3785;52.260;4.728;2022-11-20T09:33:37;11.97;;;7.40;;
7487;SDS011;3785;52.260;4.728;2022-11-20T09:36:57;14.30;;;7.27;;
7487;SDS011;3785;52.260;4.728;2022-11-20T09:43:58;13.00;;;8.20;;
7487;SDS011;3785;52.260;4.728;2022-11-20T09:55:02;13.47;;;7.27;;
7487;SDS011;3785;52.260;4.728;2022-11-20T09:58:40;15.67;;;8.10;;
7487;SDS011;3785;52.260;4.728;2022-11-20T10:02:02;13.73;;;7.33;;
7487;SDS011;3785;52.260;4.728;2022-11-20T10:05:41;14.63;;;8.60;;
7487;SDS011;3785;52.260;4.728;2022-11-20T10:19:50;15.13;;;8.45;;
7487;SDS011;3785;52.260;4.728;2022-11-20T10:30:51;14.48;;;8.35;;
7487;SDS011;3785;52.260;4.728;2022-11-20T10:34:25;14.63;;;8.30;;
7487;SDS011;3785;52.260;4.728;2022-11-20T10:37:50;13.98;;;8.13;;
7487;SDS011;3785;52.260;4.728;2022-11-20T10:41:34;13.55;;;7.70;;
7487;SDS011;3785;52.260;4.728;2022-11-20T10:48:45;18.23;;;8.27;;
7487;SDS011;3785;52.260;4.728;2022-11-20T10:52:09;12.40;;;7.57;;
7487;SDS011;3785;52.260;4.728;2022-11-20T10:55:48;13.95;;;7.78;;
7487;SDS011;3785;52.260;4.728;2022-11-20T11:02:54;14.93;;;8.18;;
7487;SDS011;3785;52.260;4.728;2022-11-20T11:09:56;12.90;;;6.95;;
7487;SDS011;3785;52.260;4.728;2022-11-20T11:13:24;12.73;;;7.40;;
7487;SDS011;3785;52.260;4.728;2022-11-20T11:20:18;14.00;;;7.82;;
7487;SDS011;3785;52.260;4.728;2022-11-20T11:23:40;15.00;;;8.40;;
7487;SDS011;3785;52.260;4.728;2022-11-20T11:27:03;14.25;;;7.90;;
7487;SDS011;3785;52.260;4.728;2022-11-20T11:30:40;13.25;;;7.95;;
7487;SDS011;3785;52.260;4.728;2022-11-20T11:34:06;13.07;;;8.70;;
7487;SDS011;3785;52.260;4.728;2022-11-20T11:37:32;14.80;;;8.27;;
7487;SDS011;3785;52.260;4.728;2022-11-20T11:40:54;14.48;;;7.47;;
7487;SDS011;3785;52.260;4.728;2022-11-20T11:48:00;17.20;;;8.50;;
7487;SDS011;3785;52.260;4.728;2022-11-20T11:51:25;16.75;;;8.77;;
7487;SDS011;3785;52.260;4.728;2022-11-20T11:54:55;12.55;;;7.95;;
7487;SDS011;3785;52.260;4.728;2022-11-20T12:02:20;13.55;;;7.82;;
7487;SDS011;3785;52.260;4.728;2022-11-20T12:05:51;15.48;;;7.80;;
7487;SDS011;3785;52.260;4.728;2022-11-20T12:09:18;16.48;;;8.63;;
7487;SDS011;3785;52.260;4.728;2022-11-20T12:12:41;15.77;;;9.25;;
7487;SDS011;3785;52.260;4.728;2022-11-20T12:16:04;15.93;;;8.82;;
7487;SDS011;3785;52.260;4.728;2022-11-20T12:19:25;17.83;;;8.32;;
7487;SDS011;3785;52.260;4.728;2022-11-20T12:22:50;17.27;;;8.88;;
7487;SDS011;3785;52.260;4.728;2022-11-20T12:26:20;16.17;;;8.55;;
7487;SDS011;3785;52.260;4.728;2022-11-20T12:29:53;20.73;;;9.20;;
7487;SDS011;3785;52.260;4.728;2022-11-20T12:52:28;16.88;;;9.18;;
7487;SDS011;3785;52.260;4.728;2022-11-20T13:03:43;21.45;;;10.20;;
7487;SDS011;3785;52.260;4.728;2022-11-20T13:07:09;16.73;;;9.02;;
7487;SDS011;3785;52.260;4.728;2022-11-20T13:14:35;17.05;;;9.95;;
7487;SDS011;3785;52.260;4.728;2022-11-20T13:18:00;19.13;;;9.63;;
7487;SDS011;3785;52.260;4.728;2022-11-20T13:21:23;17.23;;;8.63;;
7487;SDS011;3785;52.260;4.728;2022-11-20T13:24:56;23.73;;;9.70;;
7487;SDS011;3785;52.260;4.728;2022-11-20T13:31:38;22.08;;;9.93;;
7487;SDS011;3785;52.260;4.728;2022-11-20T13:35:03;19.83;;;9.45;;
7487;SDS011;3785;52.260;4.728;2022-11-20T13:38:25;19.20;;;9.40;;
7487;SDS011;3785;52.260;4.728;2022-11-20T13:41:53;20.08;;;9.80;;
7487;SDS011;3785;52.260;4.728;2022-11-20T13:45:22;22.30;;;9.80;;
7487;SDS011;3785;52.260;4.728;2022-11-20T13:48:44;17.58;;;8.80;;
7487;SDS011;3785;52.260;4.728;2022-11-20T13:55:55;19.33;;;8.88;;
7487;SDS011;3785;52.260;4.728;2022-11-20T14:06:27;16.40;;;8.70;;
7487;SDS011;3785;52.260;4.728;2022-11-20T14:09:55;20.10;;;9.00;;
7487;SDS011;3785;52.260;4.728;2022-11-20T14:13:20;20.98;;;9.65;;
7487;SDS011;3785;52.260;4.728;2022-11-20T14:16:41;22.88;;;10.75;;
7487;SDS011;3785;52.260;4.728;2022-11-20T14:20:05;18.95;;;9.82;;
7487;SDS011;3785;52.260;4.728;2022-11-20T14:23:27;17.23;;;9.18;;
7487;SDS011;3785;52.260;4.728;2022-11-20T14:26:48;20.13;;;9.98;;
7487;SDS011;3785;52.260;4.728;2022-11-20T14:30:14;16.83;;;9.18;;
7487;SDS011;3785;52.260;4.728;2022-11-20T14:33:36;21.70;;;9.98;;
7487;SDS011;3785;52.260;4.728;2022-11-20T14:36:58;14.15;;;8.88;;
7487;SDS011;3785;52.260;4.728;2022-11-20T14:40:33;19.73;;;10.25;;
7487;SDS011;3785;52.260;4.728;2022-11-20T14:43:58;17.98;;;8.95;;
7487;SDS011;3785;52.260;4.728;2022-11-20T14:47:21;19.48;;;9.50;;
7487;SDS011;3785;52.260;4.728;2022-11-20T14:50:43;20.80;;;10.68;;
7487;SDS011;3785;52.260;4.728;2022-11-20T14:54:19;18.17;;;9.80;;
7487;SDS011;3785;52.260;4.728;2022-11-20T14:57:42;17.15;;;9.63;;
7487;SDS011;3785;52.260;4.728;2022-11-20T15:01:04;22.45;;;10.13;;
7487;SDS011;3785;52.260;4.728;2022-11-20T15:04:26;17.80;;;9.98;;
7487;SDS011;3785;52.260;4.728;2022-11-20T15:07:48;18.98;;;9.30;;
7487;SDS011;3785;52.260;4.728;2022-11-20T15:11:22;17.40;;;9.45;;
7487;SDS011;3785;52.260;4.728;2022-11-20T15:14:48;18.75;;;10.23;;
7487;SDS011;3785;52.260;4.728;2022-11-20T15:18:21;20.30;;;10.40;;
7487;SDS011;3785;52.260;4.728;2022-11-20T15:21:43;16.48;;;9.40;;
7487;SDS011;3785;52.260;4.728;2022-11-20T15:25:14;19.00;;;9.55;;
7487;SDS011;3785;52.260;4.728;2022-11-20T15:28:45;17.17;;;9.27;;
7487;SDS011;3785;52.260;4.728;2022-11-20T15:32:10;20.13;;;10.30;;
7487;SDS011;3785;52.260;4.728;2022-11-20T15:35:31;18.80;;;8.57;;
7487;SDS011;3785;52.260;4.728;2022-11-20T15:38:51;20.17;;;9.88;;
7487;SDS011;3785;52.260;4.728;2022-11-20T15:42:14;19.73;;;10.30;;
7487;SDS011;3785;52.260;4.728;2022-11-20T15:45:41;17.67;;;10.35;;
7487;SDS011;3785;52.260;4.728;2022-11-20T15:49:04;20.55;;;10.38;;
7487;SDS011;3785;52.260;4.728;2022-11-20T15:52:25;19.20;;;8.80;;
7487;SDS011;3785;52.260;4.728;2022-11-20T15:55:46;18.90;;;10.13;;
7487;SDS011;3785;52.260;4.728;2022-11-20T15:59:07;17.23;;;8.02;;
7487;SDS011;3785;52.260;4.728;2022-11-20T16:02:27;22.00;;;9.15;;
7487;SDS011;3785;52.260;4.728;2022-11-20T16:05:48;14.98;;;8.27;;
7487;SDS011;3785;52.260;4.728;2022-11-20T16:09:09;15.27;;;8.02;;
7487;SDS011;3785;52.260;4.728;2022-11-20T16:12:29;15.20;;;8.80;;
7487;SDS011;3785;52.260;4.728;2022-11-20T16:16:17;15.05;;;7.40;;
7487;SDS011;3785;52.260;4.728;2022-11-20T16:19:43;15.85;;;8.73;;
7487;SDS011;3785;52.260;4.728;2022-11-20T16:23:03;14.70;;;7.68;;
7487;SDS011;3785;52.260;4.728;2022-11-20T16:26:24;17.33;;;9.50;;
7487;SDS011;3785;52.260;4.728;2022-11-20T16:29:45;15.65;;;7.43;;
7487;SDS011;3785;52.260;4.728;2022-11-20T16:33:09;16.02;;;7.65;;
7487;SDS011;3785;52.260;4.728;2022-11-20T16:36:32;9.95;;;5.72;;
7487;SDS011;3785;52.260;4.728;2022-11-20T16:39:53;14.35;;;8.02;;
7487;SDS011;3785;52.260;4.728;2022-11-20T16:43:13;13.98;;;7.82;;
7487;SDS011;3785;52.260;4.728;2022-11-20T16:46:34;16.17;;;8.23;;
7487;SDS011;3785;52.260;4.728;2022-11-20T16:49:55;12.77;;;7.28;;
7487;SDS011;3785;52.260;4.728;2022-11-20T16:53:16;16.17;;;8.50;;
7487;SDS011;3785;52.260;4.728;2022-11-20T16:56:40;14.05;;;7.40;;
7487;SDS011;3785;52.260;4.728;2022-11-20T17:00:02;17.92;;;8.70;;
7487;SDS011;3785;52.260;4.728;2022-11-20T17:03:23;13.18;;;7.25;;
7487;SDS011;3785;52.260;4.728;2022-11-20T17:06:44;14.77;;;8.63;;
7487;SDS011;3785;52.260;4.728;2022-11-20T17:10:04;11.20;;;7.10;;
7487;SDS011;3785;52.260;4.728;2022-11-20T17:13:25;12.43;;;8.18;;
7487;SDS011;3785;52.260;4.728;2022-11-20T17:16:46;14.18;;;8.30;;
7487;SDS011;3785;52.260;4.728;2022-11-20T17:20:07;16.92;;;8.52;;
7487;SDS011;3785;52.260;4.728;2022-11-20T17:23:28;17.98;;;8.43;;
7487;SDS011;3785;52.260;4.728;2022-11-20T17:26:52;13.32;;;7.22;;
7487;SDS011;3785;52.260;4.728;2022-11-20T17:30:12;14.93;;;7.75;;
7487;SDS011;3785;52.260;4.728;2022-11-20T17:33:34;17.20;;;7.88;;
7487;SDS011;3785;52.260;4.728;2022-11-20T17:36:55;14.80;;;8.25;;
7487;SDS011;3785;52.260;4.728;2022-11-20T17:40:16;12.30;;;7.65;;
7487;SDS011;3785;52.260;4.728;2022-11-20T17:43:37;16.63;;;8.65;;
7487;SDS011;3785;52.260;4.728;2022-11-20T17:46:58;16.05;;;7.97;;
7487;SDS011;3785;52.260;4.728;2022-11-20T17:50:19;14.88;;;8.10;;
7487;SDS011;3785;52.260;4.728;2022-11-20T17:53:40;13.23;;;7.25;;
7487;SDS011;3785;52.260;4.728;2022-11-20T17:57:02;12.73;;;6.55;;
7487;SDS011;3785;52.260;4.728;2022-11-20T18:00:41;14.20;;;7.25;;
7487;SDS011;3785;52.260;4.728;2022-11-20T18:04:02;13.10;;;7.40;;
7487;SDS011;3785;52.260;4.728;2022-11-20T18:07:23;15.57;;;8.05;;
7487;SDS011;3785;52.260;4.728;2022-11-20T18:10:44;12.70;;;7.13;;
7487;SDS011;3785;52.260;4.728;2022-11-20T18:14:05;13.93;;;7.55;;
7487;SDS011;3785;52.260;4.728;2022-11-20T18:17:47;12.55;;;6.70;;
7487;SDS011;3785;52.260;4.728;2022-11-20T18:21:08;10.98;;;7.05;;
7487;SDS011;3785;52.260;4.728;2022-11-20T18:24:29;13.07;;;6.65;;
7487;SDS011;3785;52.260;4.728;2022-11-20T18:27:50;11.15;;;6.78;;
7487;SDS011;3785;52.260;4.728;2022-11-20T18:31:11;15.20;;;8.85;;
7487;SDS011;3785;52.260;4.728;2022-11-20T18:34:32;14.90;;;8.80;;
7487;SDS011;3785;52.260;4.728;2022-11-20T18:37:52;12.18;;;8.02;;
7487;SDS011;3785;52.260;4.728;2022-11-20T18:41:14;12.88;;;7.22;;
7487;SDS011;3785;52.260;4.728;2022-11-20T18:44:54;13.85;;;7.55;;
7487;SDS011;3785;52.260;4.728;2022-11-20T18:48:15;11.38;;;7.40;;
7487;SDS011;3785;52.260;4.728;2022-11-20T18:51:35;13.75;;;7.68;;
7487;SDS011;3785;52.260;4.728;2022-11-20T18:54:56;15.05;;;8.07;;
7487;SDS011;3785;52.260;4.728;2022-11-20T18:58:17;12.82;;;7.28;;
7487;SDS011;3785;52.260;4.728;2022-11-20T19:01:38;12.65;;;7.50;;
7487;SDS011;3785;52.260;4.728;2022-11-20T19:04:59;14.00;;;7.47;;
7487;SDS011;3785;52.260;4.728;2022-11-20T19:08:19;14.57;;;8.65;;
7487;SDS011;3785;52.260;4.728;2022-11-20T19:11:40;15.93;;;9.50;;
7487;SDS011;3785;52.260;4.728;2022-11-20T19:15:01;15.18;;;8.80;;
7487;SDS011;3785;52.260;4.728;2022-11-20T19:18:22;13.77;;;8.45;;
7487;SDS011;3785;52.260;4.728;2022-11-20T19:21:42;19.35;;;9.38;;
7487;SDS011;3785;52.260;4.728;2022-11-20T19:25:03;14.35;;;7.18;;
7487;SDS011;3785;52.260;4.728;2022-11-20T19:28:24;16.27;;;8.45;;
7487;SDS011;3785;52.260;4.728;2022-11-20T19:31:44;13.95;;;8.23;;
7487;SDS011;3785;52.260;4.728;2022-11-20T19:35:05;18.05;;;8.98;;
7487;SDS011;3785;52.260;4.728;2022-11-20T19:38:26;14.30;;;8.43;;
7487;SDS011;3785;52.260;4.728;2022-11-20T19:41:47;16.50;;;9.48;;
7487;SDS011;3785;52.260;4.728;2022-11-20T19:45:08;15.93;;;8.68;;
7487;SDS011;3785;52.260;4.728;2022-11-20T19:48:29;14.80;;;8.77;;
7487;SDS011;3785;52.260;4.728;2022-11-20T19:51:50;14.00;;;7.68;;
7487;SDS011;3785;52.260;4.728;2022-11-20T19:55:11;13.48;;;8.38;;
7487;SDS011;3785;52.260;4.728;2022-11-20T19:58:31;11.98;;;8.02;;
7487;SDS011;3785;52.260;4.728;2022-11-20T20:01:52;15.43;;;8.60;;
7487;SDS011;3785;52.260;4.728;2022-11-20T20:05:13;15.10;;;9.02;;
7487;SDS011;3785;52.260;4.728;2022-11-20T20:08:33;17.80;;;9.05;;
7487;SDS011;3785;52.260;4.728;2022-11-20T20:11:54;18.67;;;9.20;;
7487;SDS011;3785;52.260;4.728;2022-11-20T20:15:15;14.50;;;8.77;;
7487;SDS011;3785;52.260;4.728;2022-11-20T20:18:36;15.80;;;9.05;;
7487;SDS011;3785;52.260;4.728;2022-11-20T20:21:56;17.25;;;8.77;;
7487;SDS011;3785;52.260;4.728;2022-11-20T20:25:17;13.90;;;8.52;;
7487;SDS011;3785;52.260;4.728;2022-11-20T20:28:38;17.00;;;9.55;;
7487;SDS011;3785;52.260;4.728;2022-11-20T20:31:59;15.50;;;8.48;;
7487;SDS011;3785;52.260;4.728;2022-11-20T20:35:19;13.23;;;8.68;;
7487;SDS011;3785;52.260;4.728;2022-11-20T20:42:57;17.10;;;9.32;;
7487;SDS011;3785;52.260;4.728;2022-11-20T20:46:17;17.65;;;8.85;;
7487;SDS011;3785;52.260;4.728;2022-11-20T20:49:38;18.67;;;9.57;;
7487;SDS011;3785;52.260;4.728;2022-11-20T20:53:02;14.07;;;8.88;;
7487;SDS011;3785;52.260;4.728;2022-11-20T20:56:22;15.32;;;8.88;;
7487;SDS011;3785;52.260;4.728;2022-11-20T20:59:43;17.67;;;9.85;;
7487;SDS011;3785;52.260;4.728;2022-11-20T21:03:03;16.08;;;9.10;;
7487;SDS011;3785;52.260;4.728;2022-11-20T21:06:24;16.40;;;9.55;;
7487;SDS011;3785;52.260;4.728;2022-11-20T21:09:45;17.25;;;9.55;;
7487;SDS011;3785;52.260;4.728;2022-11-20T21:13:06;18.25;;;9.85;;
7487;SDS011;3785;52.260;4.728;2022-11-20T21:16:26;15.80;;;8.95;;
7487;SDS011;3785;52.260;4.728;2022-11-20T21:19:59;16.05;;;9.00;;
7487;SDS011;3785;52.260;4.728;2022-11-20T21:23:40;15.43;;;9.40;;
7487;SDS011;3785;52.260;4.728;2022-11-20T21:27:02;17.58;;;9.52;;
7487;SDS011;3785;52.260;4.728;2022-11-20T21:30:24;14.65;;;9.38;;
7487;SDS011;3785;52.260;4.728;2022-11-20T21:33:45;13.98;;;8.55;;
7487;SDS011;3785;52.260;4.728;2022-11-20T21:37:06;14.90;;;9.00;;
7487;SDS011;3785;52.260;4.728;2022-11-20T21:40:26;19.10;;;10.00;;
7487;SDS011;3785;52.260;4.728;2022-11-20T21:43:47;16.48;;;9.70;;
7487;SDS011;3785;52.260;4.728;2022-11-20T21:47:09;14.68;;;8.95;;
7487;SDS011;3785;52.260;4.728;2022-11-20T21:50:33;15.60;;;9.57;;
7487;SDS011;3785;52.260;4.728;2022-11-20T21:53:53;14.95;;;8.85;;
7487;SDS011;3785;52.260;4.728;2022-11-20T21:57:14;15.65;;;8.88;;
7487;SDS011;3785;52.260;4.728;2022-11-20T22:00:35;15.35;;;9.00;;
7487;SDS011;3785;52.260;4.728;2022-11-20T22:03:59;14.90;;;9.35;;
7487;SDS011;3785;52.260;4.728;2022-11-20T22:07:21;19.83;;;9.82;;
7487;SDS011;3785;52.260;4.728;2022-11-20T22:10:41;15.60;;;9.10;;
7487;SDS011;3785;52.260;4.728;2022-11-20T22:14:02;17.38;;;9.77;;
7487;SDS011;3785;52.260;4.728;2022-11-20T22:17:41;17.95;;;10.07;;
7487;SDS011;3785;52.260;4.728;2022-11-20T22:21:21;18.88;;;11.02;;
7487;SDS011;3785;52.260;4.728;2022-11-20T22:24:43;15.77;;;9.77;;
7487;SDS011;3785;52.260;4.728;2022-11-20T22:28:03;17.33;;;9.73;;
7487;SDS011;3785;52.260;4.728;2022-11-20T22:31:25;17.73;;;11.07;;
7487;SDS011;3785;52.260;4.728;2022-11-20T22:34:47;19.60;;;10.60;;